createdAt,value
2018-06-05T00:00:06.681Z,20.96
2018-06-05T00:02:34.565Z,21.15
2018-06-05T00:05:02.540Z,21.00
2018-06-05T00:07:30.471Z,21.35
2018-06-05T00:09:58.603Z,21.29
2018-06-05T00:12:26.525Z,21.45
2018-06-05T00:14:54.554Z,21.56
2018-06-05T00:17:22.553Z,21.32
2018-06-05T00:19:50.535Z,21.00
2018-06-05T00:22:18.512Z,20.64
2018-06-05T00:24:46.547Z,20.71
2018-06-05T00:27:14.437Z,20.98
2018-06-05T00:29:42.357Z,20.86
2018-06-05T00:32:10.327Z,20.87
2018-06-05T00:34:38.289Z,20.85
2018-06-05T00:37:07.140Z,20.97
2018-06-05T00:39:35.146Z,20.89
2018-06-05T00:42:03.019Z,20.84
2018-06-05T00:44:31.037Z,20.61
2018-06-05T00:46:59.041Z,20.15
2018-06-05T00:49:27.348Z,20.10
2018-06-05T00:52:09.226Z,20.46
2018-06-05T00:54:37.497Z,20.70
2018-06-05T00:57:05.590Z,20.60
2018-06-05T00:59:33.645Z,20.51
2018-06-05T01:02:01.692Z,20.77
2018-06-05T01:04:29.705Z,20.99
2018-06-05T01:06:57.608Z,21.02
2018-06-05T01:09:25.668Z,21.15
2018-06-05T01:11:54.266Z,21.15
2018-06-05T01:14:22.234Z,21.10
2018-06-05T01:16:50.221Z,21.05
2018-06-05T01:19:18.204Z,21.00
2018-06-05T01:21:46.116Z,20.78
2018-06-05T01:24:14.124Z,20.48
2018-06-05T01:26:42.190Z,20.16
2018-06-05T01:29:10.220Z,20.00
2018-06-05T01:31:38.352Z,19.91
2018-06-05T01:34:06.291Z,19.96
2018-06-05T01:36:34.210Z,19.89
2018-06-05T01:39:02.394Z,19.97
2018-06-05T01:41:30.366Z,20.34
2018-06-05T01:43:58.397Z,20.56
2018-06-05T01:46:26.418Z,20.44
2018-06-05T01:48:55.308Z,20.21
2018-06-05T01:51:23.374Z,20.39
2018-06-05T01:53:51.385Z,20.27
2018-06-05T01:56:19.419Z,20.39
2018-06-05T01:58:47.344Z,20.00
2018-06-05T02:01:15.305Z,19.82
2018-06-05T02:03:43.329Z,19.98
2018-06-05T02:06:11.345Z,20.21
2018-06-05T02:08:39.317Z,20.08
2018-06-05T02:11:07.291Z,19.90
2018-06-05T02:13:35.333Z,19.92
2018-06-05T02:16:03.329Z,19.86
2018-06-05T02:18:31.372Z,19.79
2018-06-05T02:20:59.422Z,19.92
2018-06-05T02:23:27.394Z,19.84
2018-06-05T02:25:55.422Z,19.93
2018-06-05T02:28:23.489Z,19.91
2018-06-05T02:30:51.468Z,19.88
2018-06-05T02:33:19.472Z,19.91
2018-06-05T02:35:47.512Z,20.03
2018-06-05T02:38:15.499Z,19.69
2018-06-05T02:40:43.420Z,19.68
2018-06-05T02:43:11.430Z,19.83
2018-06-05T02:45:39.463Z,19.42
2018-06-05T02:48:07.463Z,19.51
2018-06-05T02:50:35.448Z,19.35
2018-06-05T02:53:03.409Z,19.21
2018-06-05T02:55:31.357Z,19.37
2018-06-05T02:57:59.284Z,19.54
2018-06-05T03:00:27.344Z,19.67
2018-06-05T03:02:55.314Z,19.89
2018-06-05T03:05:23.381Z,20.07
2018-06-05T03:07:51.390Z,20.15
2018-06-05T03:10:19.487Z,20.28
2018-06-05T03:12:47.474Z,20.27
2018-06-05T03:15:15.392Z,20.26
2018-06-05T03:17:43.495Z,20.29
2018-06-05T03:20:11.510Z,19.86
2018-06-05T03:22:39.590Z,19.89
2018-06-05T03:25:07.648Z,19.96
2018-06-05T03:27:35.665Z,20.06
2018-06-05T03:30:04.206Z,19.87
2018-06-05T03:32:32.176Z,19.95
2018-06-05T03:35:00.155Z,20.01
2018-06-05T03:37:28.142Z,19.89
2018-06-05T03:39:56.276Z,19.68
2018-06-05T03:42:24.206Z,19.84
2018-06-05T03:44:52.229Z,20.13
2018-06-05T03:47:20.154Z,20.09
2018-06-05T03:49:48.193Z,20.03
2018-06-05T03:52:16.201Z,19.98
2018-06-05T03:54:44.133Z,20.23
2018-06-05T03:57:12.177Z,19.94
2018-06-05T03:59:40.133Z,19.93
2018-06-05T04:02:08.139Z,20.26
2018-06-05T04:04:36.617Z,20.42
2018-06-05T04:07:04.979Z,20.25
2018-06-05T04:09:33.369Z,20.28
2018-06-05T04:12:01.842Z,20.32
2018-06-05T04:14:29.910Z,20.39
2018-06-05T04:16:57.948Z,20.41
2018-06-05T04:19:25.897Z,20.02
2018-06-05T04:21:53.834Z,20.13
2018-06-05T04:24:21.828Z,20.23
2018-06-05T04:26:49.769Z,20.06
2018-06-05T04:29:17.720Z,20.24
2018-06-05T04:31:45.777Z,20.47
2018-06-05T04:34:13.866Z,20.54
2018-06-05T04:36:41.744Z,20.54
2018-06-05T04:39:09.875Z,20.44
2018-06-05T04:41:38.860Z,20.64
2018-06-05T04:44:06.846Z,20.61
2018-06-05T04:46:34.847Z,20.87
2018-06-05T04:49:02.877Z,21.11
2018-06-05T04:51:31.453Z,21.19
2018-06-05T04:53:59.357Z,20.81
2018-06-05T04:56:27.497Z,20.81
2018-06-05T04:58:55.512Z,21.00
2018-06-05T05:01:23.668Z,21.24
2018-06-05T05:03:52.325Z,21.36
2018-06-05T05:06:20.372Z,21.59
2018-06-05T05:08:48.394Z,21.80
2018-06-05T05:11:16.425Z,21.75
2018-06-05T05:13:44.506Z,21.51
2018-06-05T05:16:12.538Z,21.34
2018-06-05T05:18:40.577Z,21.48
2018-06-05T05:21:08.598Z,21.60
2018-06-05T05:23:36.557Z,21.75
2018-06-05T05:26:04.508Z,21.76
2018-06-05T05:28:32.465Z,21.81
2018-06-05T05:31:00.501Z,21.94
2018-06-05T05:33:28.444Z,21.95
2018-06-05T05:35:56.564Z,21.95
2018-06-05T05:38:24.573Z,22.00
2018-06-05T05:40:52.589Z,21.93
2018-06-05T05:43:21.743Z,22.08
2018-06-05T05:45:49.928Z,22.38
2018-06-05T05:48:18.450Z,22.55
2018-06-05T05:50:48.260Z,22.39
2018-06-05T05:53:16.526Z,22.36
2018-06-05T05:55:44.526Z,22.32
2018-06-05T05:58:12.831Z,22.46
2018-06-05T06:00:40.898Z,22.71
2018-06-05T06:03:09.006Z,22.66
2018-06-05T06:05:36.999Z,22.82
2018-06-05T06:08:05.079Z,22.87
2018-06-05T06:10:33.082Z,22.85
2018-06-05T06:13:01.404Z,22.87
2018-06-05T06:15:29.549Z,22.92
2018-06-05T06:17:57.524Z,23.09
2018-06-05T06:20:25.609Z,23.20
2018-06-05T06:22:53.506Z,23.31
2018-06-05T06:25:21.497Z,23.70
2018-06-05T06:27:49.480Z,23.72
2018-06-05T06:30:17.506Z,23.67
2018-06-05T06:32:45.429Z,23.61
2018-06-05T06:35:13.522Z,23.55
2018-06-05T06:37:41.517Z,23.63
2018-06-05T06:40:09.767Z,23.73
2018-06-05T06:42:37.920Z,23.80
2018-06-05T06:45:05.955Z,23.88
2018-06-05T06:47:33.893Z,23.58
2018-06-05T06:50:01.940Z,23.51
2018-06-05T06:52:29.945Z,23.41
2018-06-05T06:54:58.014Z,23.45
2018-06-05T06:57:25.999Z,23.76
2018-06-05T06:59:53.967Z,23.89
2018-06-05T07:02:22.135Z,23.99
2018-06-05T07:04:50.158Z,23.98
2018-06-05T07:07:18.276Z,23.84
2018-06-05T07:09:46.400Z,23.93
2018-06-05T07:12:14.369Z,24.15
2018-06-05T07:14:42.375Z,24.38
2018-06-05T07:17:10.413Z,24.71
2018-06-05T07:19:38.473Z,24.59
2018-06-05T07:22:06.457Z,24.58
2018-06-05T07:24:34.418Z,24.51
2018-06-05T07:27:02.476Z,24.69
2018-06-05T07:29:30.404Z,25.03
2018-06-05T07:31:58.632Z,25.29
2018-06-05T07:34:26.672Z,25.48
2018-06-05T07:36:54.856Z,25.68
2018-06-05T07:39:23.470Z,25.52
2018-06-05T07:41:51.441Z,25.22
2018-06-05T07:44:19.367Z,25.34
2018-06-05T07:46:47.347Z,25.44
2018-06-05T07:49:16.020Z,25.49
2018-06-05T07:51:43.926Z,25.85
2018-06-05T07:54:11.845Z,25.93
2018-06-05T07:56:39.870Z,25.94
2018-06-05T07:59:08.220Z,26.01
2018-06-05T08:01:36.091Z,25.95
2018-06-05T08:04:04.081Z,25.83
2018-06-05T08:06:32.130Z,26.00
2018-06-05T08:09:00.941Z,26.07
2018-06-05T08:11:28.898Z,25.99
2018-06-05T08:13:56.830Z,25.90
2018-06-05T08:16:24.826Z,26.19
2018-06-05T08:18:52.709Z,26.14
2018-06-05T08:21:20.726Z,26.24
2018-06-05T08:23:48.607Z,26.35
2018-06-05T08:26:16.889Z,26.46
2018-06-05T08:28:44.894Z,26.63
2018-06-05T08:31:12.825Z,26.61
2018-06-05T08:34:17.665Z,26.70
2018-06-05T08:36:51.852Z,26.83
2018-06-05T08:39:19.833Z,26.74
2018-06-05T08:41:48.639Z,26.70
2018-06-05T08:44:16.649Z,26.79
2018-06-05T08:46:44.573Z,26.99
2018-06-05T08:49:12.545Z,27.17
2018-06-05T08:51:40.461Z,27.35
2018-06-05T08:54:08.439Z,27.24
2018-06-05T08:56:36.490Z,27.17
2018-06-05T08:59:04.532Z,27.16
2018-06-05T09:01:32.485Z,27.18
2018-06-05T09:04:00.668Z,27.30
2018-06-05T09:06:28.717Z,27.30
2018-06-05T09:08:56.677Z,27.28
2018-06-05T09:11:24.622Z,27.45
2018-06-05T09:13:52.715Z,27.56
2018-06-05T09:16:20.689Z,27.71
2018-06-05T09:18:48.688Z,27.69
2018-06-05T09:21:16.602Z,27.72
2018-06-05T09:23:44.624Z,27.79
2018-06-05T09:26:12.501Z,27.61
2018-06-05T09:28:40.503Z,27.74
2018-06-05T09:31:08.777Z,27.75
2018-06-05T09:33:36.869Z,27.70
2018-06-05T09:36:04.769Z,27.79
2018-06-05T09:38:33.214Z,28.01
2018-06-05T09:41:01.586Z,28.10
2018-06-05T09:43:29.553Z,28.08
2018-06-05T09:45:57.676Z,28.03
2018-06-05T09:48:26.015Z,28.09
2018-06-05T09:50:54.593Z,28.05
2018-06-05T09:53:22.880Z,28.25
2018-06-05T09:55:51.480Z,28.38
2018-06-05T09:58:20.764Z,28.45
2018-06-05T10:00:50.802Z,28.35
2018-06-05T10:03:19.430Z,28.34
2018-06-05T10:05:47.742Z,28.28
2018-06-05T10:08:16.208Z,28.39
2018-06-05T10:10:44.697Z,28.36
2018-06-05T10:13:13.958Z,28.37
2018-06-05T10:15:42.477Z,28.24
2018-06-05T10:18:10.860Z,28.27
2018-06-05T10:20:39.344Z,28.47
2018-06-05T10:23:07.850Z,28.63
2018-06-05T10:25:36.301Z,28.68
2018-06-05T10:28:04.667Z,28.65
2018-06-05T10:30:33.235Z,28.75
2018-06-05T10:33:01.779Z,28.64
2018-06-05T10:35:29.938Z,28.91
2018-06-05T10:37:58.357Z,29.11
2018-06-05T10:40:26.934Z,29.22
2018-06-05T10:42:55.468Z,28.83
2018-06-05T10:45:23.841Z,29.01
2018-06-05T10:47:52.464Z,28.91
2018-06-05T10:50:20.935Z,28.92
2018-06-05T10:52:49.493Z,28.92
2018-06-05T10:55:18.007Z,29.05
2018-06-05T10:57:46.552Z,29.32
2018-06-05T11:00:15.232Z,29.47
2018-06-05T11:02:43.633Z,29.31
2018-06-05T11:05:12.013Z,29.34
2018-06-05T11:07:41.009Z,29.28
2018-06-05T11:10:09.477Z,29.33
2018-06-05T11:12:38.010Z,29.20
2018-06-05T11:15:06.446Z,29.28
2018-06-05T11:17:35.047Z,28.89
2018-06-05T11:20:03.612Z,28.91
2018-06-05T11:22:32.201Z,28.93
2018-06-05T11:25:00.810Z,28.99
2018-06-05T11:27:29.677Z,28.87
2018-06-05T11:29:58.073Z,29.06
2018-06-05T11:32:26.428Z,29.01
2018-06-05T11:34:54.815Z,29.13
2018-06-05T11:37:23.293Z,29.32
2018-06-05T11:39:51.779Z,29.40
2018-06-05T11:42:20.249Z,29.46
2018-06-05T11:44:48.689Z,29.62
2018-06-05T11:47:17.198Z,29.57
2018-06-05T11:49:45.672Z,29.60
2018-06-05T11:52:14.615Z,29.71
2018-06-05T11:54:42.967Z,29.83
2018-06-05T11:57:11.271Z,29.59
2018-06-05T11:59:39.889Z,29.64
2018-06-05T12:02:08.473Z,29.77
2018-06-05T12:04:36.797Z,29.87
2018-06-05T12:07:05.438Z,29.91
2018-06-05T12:09:34.065Z,29.77
2018-06-05T12:12:02.477Z,29.85
2018-06-05T12:14:30.826Z,29.90
2018-06-05T12:16:59.357Z,29.78
2018-06-05T12:19:27.890Z,29.61
2018-06-05T12:21:56.517Z,29.88
2018-06-05T12:24:25.173Z,30.10
2018-06-05T12:26:55.136Z,30.14
2018-06-05T12:29:23.657Z,30.18
2018-06-05T12:31:52.038Z,29.78
2018-06-05T12:34:20.712Z,29.69
2018-06-05T12:36:49.204Z,29.78
2018-06-05T12:39:17.134Z,29.65
2018-06-05T12:41:45.667Z,29.62
2018-06-05T12:44:14.024Z,29.49
2018-06-05T12:46:42.561Z,29.52
2018-06-05T12:49:10.857Z,29.59
2018-06-05T12:51:39.419Z,29.57
2018-06-05T12:54:07.405Z,29.68
2018-06-05T12:56:35.734Z,29.65
2018-06-05T12:59:04.339Z,29.73
2018-06-05T13:01:38.221Z,29.71
2018-06-05T13:04:12.818Z,29.68
2018-06-05T13:06:41.329Z,29.78
2018-06-05T13:09:09.703Z,29.75
2018-06-05T13:11:38.306Z,29.68
2018-06-05T13:14:06.706Z,29.59
2018-06-05T13:16:35.255Z,29.66
2018-06-05T13:19:29.021Z,29.75
2018-06-05T13:21:59.032Z,29.79
2018-06-05T13:24:27.314Z,29.65
2018-06-05T13:27:05.077Z,29.70
2018-06-05T13:29:33.973Z,29.54
2018-06-05T13:32:02.386Z,29.40
2018-06-05T13:34:31.110Z,29.44
2018-06-05T13:36:59.398Z,29.41
2018-06-05T13:39:27.659Z,29.48
2018-06-05T13:41:56.333Z,29.38
2018-06-05T13:44:24.371Z,29.45
2018-06-05T13:46:52.804Z,29.38
2018-06-05T13:49:21.536Z,29.39
2018-06-05T13:51:50.031Z,29.45
2018-06-05T13:54:18.483Z,29.20
2018-06-05T13:56:46.941Z,29.11
2018-06-05T13:59:15.649Z,29.24
2018-06-05T14:01:44.035Z,29.17
2018-06-05T14:04:12.612Z,29.33
2018-06-05T14:06:40.636Z,29.34
2018-06-05T14:09:09.038Z,29.40
2018-06-05T14:11:37.429Z,29.44
2018-06-05T14:14:06.077Z,29.40
2018-06-05T14:16:34.453Z,29.32
2018-06-05T14:19:02.883Z,29.38
2018-06-05T14:21:31.247Z,29.45
2018-06-05T14:23:59.854Z,29.52
2018-06-05T14:26:28.470Z,29.24
2018-06-05T14:28:57.078Z,29.20
2018-06-05T14:31:25.585Z,29.22
2018-06-05T14:33:53.981Z,29.14
2018-06-05T14:36:22.566Z,29.25
2018-06-05T14:38:51.062Z,29.24
2018-06-05T14:41:19.537Z,29.22
2018-06-05T14:43:47.909Z,29.25
2018-06-05T14:46:16.520Z,29.30
2018-06-05T14:48:44.875Z,29.13
2018-06-05T14:51:13.249Z,29.16
2018-06-05T14:53:42.046Z,29.03
2018-06-05T14:56:10.625Z,29.01
2018-06-05T14:58:40.873Z,28.93
2018-06-05T15:01:09.125Z,28.82
2018-06-05T15:03:37.502Z,28.73
2018-06-05T15:06:05.782Z,28.78
2018-06-05T15:08:34.425Z,28.77
2018-06-05T15:11:02.768Z,28.83
2018-06-05T15:17:00.246Z,28.73
2018-06-05T15:19:54.796Z,28.61
2018-06-05T15:22:44.350Z,28.64
2018-06-05T15:25:18.530Z,28.18
2018-06-05T15:27:46.486Z,28.30
2018-06-05T15:30:14.397Z,28.36
2018-06-05T15:32:42.354Z,28.40
2018-06-05T15:35:10.374Z,28.27
2018-06-05T15:37:41.464Z,28.46
2018-06-05T15:40:10.085Z,28.60
2018-06-05T15:42:38.424Z,28.61
2018-06-05T15:45:06.904Z,28.83
2018-06-05T15:47:35.499Z,28.49
2018-06-05T15:50:04.173Z,27.87
2018-06-05T15:52:32.358Z,27.78
2018-06-05T15:55:00.790Z,28.03
2018-06-05T15:57:29.027Z,28.07
2018-06-05T15:59:56.914Z,28.10
2018-06-05T16:02:25.474Z,27.83
2018-06-05T16:04:54.738Z,27.85
2018-06-05T16:07:23.147Z,27.85
2018-06-05T16:09:51.424Z,27.95
2018-06-05T16:12:19.906Z,28.01
2018-06-05T16:14:48.493Z,27.90
2018-06-05T16:17:17.002Z,28.18
2018-06-05T16:19:45.241Z,28.00
2018-06-05T16:22:13.519Z,27.85
2018-06-05T16:24:42.019Z,28.03
2018-06-05T16:27:10.588Z,28.56
2018-06-05T16:29:39.064Z,28.31
2018-06-05T16:32:07.440Z,27.89
2018-06-05T16:38:03.993Z,27.39
2018-06-05T16:40:32.105Z,27.28
2018-06-05T16:43:00.210Z,27.34
2018-06-05T16:45:28.182Z,27.53
2018-06-05T16:47:56.270Z,27.46
2018-06-05T16:50:24.250Z,27.54
2018-06-05T16:52:52.339Z,27.32
2018-06-05T16:55:20.316Z,27.36
2018-06-05T16:57:48.286Z,27.61
2018-06-05T17:00:16.257Z,27.92
2018-06-05T17:02:44.174Z,27.83
2018-06-05T17:05:12.104Z,27.54
2018-06-05T17:07:40.184Z,27.17
2018-06-05T17:10:08.231Z,27.17
2018-06-05T17:12:36.205Z,27.03
2018-06-05T17:15:04.151Z,27.11
2018-06-05T17:17:32.217Z,27.23
2018-06-05T17:20:00.302Z,27.47
2018-06-05T17:22:28.349Z,27.44
2018-06-05T17:24:56.291Z,27.50
2018-06-05T17:27:24.271Z,27.43
2018-06-05T17:29:52.405Z,27.19
2018-06-05T17:32:20.602Z,26.97
2018-06-05T17:34:48.662Z,26.83
2018-06-05T17:37:16.566Z,26.78
2018-06-05T17:39:44.487Z,26.84
2018-06-05T17:42:12.504Z,26.77
2018-06-05T17:44:40.557Z,26.94
2018-06-05T17:47:08.601Z,26.96
2018-06-05T17:49:37.093Z,26.85
2018-06-05T17:52:05.049Z,26.62
2018-06-05T17:54:33.121Z,26.76
2018-06-05T17:57:01.082Z,26.59
2018-06-05T17:59:29.002Z,26.71
2018-06-05T18:01:56.962Z,26.44
2018-06-05T18:04:24.857Z,26.42
2018-06-05T18:06:52.764Z,26.45
2018-06-05T18:09:20.702Z,26.26
2018-06-05T18:11:48.626Z,26.59
2018-06-05T18:14:16.570Z,26.42
2018-06-05T18:16:44.481Z,26.49
2018-06-05T18:19:13.224Z,26.21
2018-06-05T18:22:05.730Z,26.18
2018-06-05T18:24:35.690Z,26.18
2018-06-05T18:27:04.081Z,26.03
2018-06-05T18:29:32.965Z,26.11
2018-06-05T18:32:01.684Z,26.10
2018-06-05T18:34:30.687Z,26.07
2018-06-05T18:36:58.793Z,26.04
2018-06-05T18:39:26.782Z,26.09
2018-06-05T18:41:54.774Z,26.41
2018-06-05T18:44:22.848Z,26.20
2018-06-05T18:46:50.961Z,26.03
2018-06-05T18:49:53.489Z,25.92
2018-06-05T18:52:27.533Z,25.77
2018-06-05T18:54:55.438Z,25.78
2018-06-05T18:57:23.428Z,25.81
2018-06-05T18:59:51.385Z,25.92
2018-06-05T19:02:19.746Z,25.86
2018-06-05T19:04:47.967Z,25.83
2018-06-05T19:07:16.863Z,25.64
2018-06-05T19:09:46.757Z,25.60
2018-06-05T19:12:15.835Z,25.50
2018-06-05T19:14:44.514Z,25.54
2018-06-05T19:17:13.686Z,25.52
2018-06-05T19:19:41.973Z,25.45
2018-06-05T19:22:09.867Z,25.38
2018-06-05T19:24:37.732Z,25.31
2018-06-05T19:27:05.677Z,25.38
2018-06-05T19:29:33.586Z,25.16
2018-06-05T19:32:01.498Z,25.24
2018-06-05T19:34:29.434Z,25.26
2018-06-05T19:36:58.841Z,25.23
2018-06-05T19:39:27.623Z,25.26
2018-06-05T19:41:55.907Z,25.33
2018-06-05T19:44:23.993Z,25.25
2018-06-05T19:46:53.036Z,25.30
2018-06-05T19:49:20.994Z,25.33
2018-06-05T19:51:49.082Z,25.34
2018-06-05T19:54:17.166Z,25.27
2018-06-05T19:56:46.273Z,25.12
2018-06-05T19:59:14.413Z,25.08
2018-06-05T20:01:42.357Z,25.05
2018-06-05T20:04:10.416Z,24.99
2018-06-05T20:06:38.467Z,24.95
2018-06-05T20:09:08.137Z,24.92
2018-06-05T20:11:36.099Z,24.87
2018-06-05T20:14:04.056Z,24.83
2018-06-05T20:16:32.300Z,24.88
2018-06-05T20:19:00.568Z,24.74
2018-06-05T20:21:28.495Z,24.70
2018-06-05T20:23:56.531Z,24.67
2018-06-05T20:26:24.535Z,24.44
2018-06-05T20:28:52.404Z,24.51
2018-06-05T20:31:20.518Z,24.45
2018-06-05T20:33:48.499Z,24.48
2018-06-05T20:36:16.434Z,24.36
2018-06-05T20:38:44.706Z,24.43
2018-06-05T20:41:12.905Z,24.33
2018-06-05T20:43:41.249Z,24.17
2018-06-05T20:46:09.542Z,24.22
2018-06-05T20:48:37.472Z,24.06
2018-06-05T20:51:05.969Z,23.92
2018-06-05T20:53:33.853Z,24.01
2018-06-05T20:56:01.773Z,24.14
2018-06-05T20:58:29.810Z,24.16
2018-06-05T21:01:10.617Z,24.12
2018-06-05T21:03:44.828Z,24.02
2018-06-05T21:06:12.920Z,23.83
2018-06-05T21:08:41.002Z,23.54
2018-06-05T21:11:09.133Z,23.55
2018-06-05T21:13:37.168Z,23.71
2018-06-05T21:16:05.242Z,23.75
2018-06-05T21:18:33.220Z,23.65
2018-06-05T21:21:01.157Z,23.60
2018-06-05T21:23:29.110Z,22.77
2018-06-05T21:25:57.030Z,22.66
2018-06-05T21:28:25.942Z,22.81
2018-06-05T21:30:53.889Z,22.94
2018-06-05T21:33:22.261Z,23.13
2018-06-05T21:35:50.361Z,23.30
2018-06-05T21:38:18.285Z,23.30
2018-06-05T21:40:46.176Z,23.05
2018-06-05T21:43:14.064Z,22.64
2018-06-05T21:45:41.970Z,22.56
2018-06-05T21:51:39.746Z,22.95
2018-06-05T21:54:07.748Z,23.08
2018-06-05T21:56:35.801Z,22.99
2018-06-05T21:59:03.827Z,22.94
2018-06-05T22:01:31.849Z,22.90
2018-06-05T22:03:59.861Z,22.70
2018-06-05T22:06:27.911Z,22.83
2018-06-05T22:08:55.929Z,22.48
2018-06-05T22:11:23.997Z,22.42
2018-06-05T22:13:51.968Z,22.28
2018-06-05T22:16:19.921Z,22.21
2018-06-05T22:18:48.005Z,22.28
2018-06-05T22:21:15.915Z,22.40
2018-06-05T22:23:43.865Z,22.30
2018-06-05T22:26:11.850Z,22.52
2018-06-05T22:28:39.871Z,22.64
2018-06-05T22:31:07.889Z,22.47
2018-06-05T22:33:35.850Z,22.48
2018-06-05T22:36:03.793Z,22.61
2018-06-05T22:38:31.757Z,22.84
2018-06-05T22:40:59.776Z,22.94
2018-06-05T22:43:27.765Z,23.01
2018-06-05T22:45:55.729Z,23.00
2018-06-05T22:48:23.846Z,22.99
2018-06-05T22:50:51.829Z,22.94
2018-06-05T22:53:19.823Z,22.94
2018-06-05T22:55:47.808Z,22.77
2018-06-05T22:58:15.850Z,22.89
2018-06-05T23:00:43.766Z,22.91
2018-06-05T23:03:11.825Z,22.85
2018-06-05T23:05:39.810Z,22.74
2018-06-05T23:08:07.942Z,22.63
2018-06-05T23:10:36.012Z,22.38
2018-06-05T23:13:03.977Z,22.22
2018-06-05T23:15:31.913Z,22.03
2018-06-05T23:17:59.846Z,22.08
2018-06-05T23:20:27.792Z,21.97
2018-06-05T23:22:55.767Z,22.11
2018-06-05T23:25:23.712Z,22.29
2018-06-05T23:27:51.618Z,22.30
2018-06-05T23:30:19.576Z,22.50
2018-06-05T23:32:47.511Z,22.49
2018-06-05T23:35:15.445Z,22.05
2018-06-05T23:37:43.461Z,21.93
2018-06-05T23:40:11.370Z,21.66
2018-06-05T23:42:39.265Z,21.75
2018-06-05T23:45:07.234Z,21.38
2018-06-05T23:47:35.218Z,21.54
2018-06-05T23:50:03.353Z,21.32
2018-06-05T23:52:31.405Z,21.18
2018-06-05T23:54:59.442Z,21.31
2018-06-05T23:57:27.385Z,21.55
2018-06-05T23:59:55.394Z,21.47
